createdAt,value
2023-01-07T00:00:01.678Z,1014.1
2023-01-07T00:01:17.000Z,1014.1
2023-01-07T00:02:16.069Z,1014
2023-01-07T00:03:50.265Z,1014
2023-01-07T00:05:06.458Z,1014
2023-01-07T00:06:22.000Z,1014.1
2023-01-07T00:07:38.000Z,1014.1
2023-01-07T00:08:55.037Z,1014
2023-01-07T00:09:53.230Z,1013.9
2023-01-07T00:11:34.000Z,1014
2023-01-07T00:13:59.000Z,1014
2023-01-07T00:15:15.000Z,1013.9
2023-01-07T00:16:31.000Z,1013.9
2023-01-07T00:17:29.404Z,1013.8
2023-01-07T00:19:03.597Z,1013.7
2023-01-07T00:20:19.000Z,1013.8
2023-01-07T00:21:35.000Z,1013.8
2023-01-07T00:22:52.161Z,1013.8
2023-01-07T00:24:08.000Z,1013.8
2023-01-07T00:25:24.564Z,1013.8
2023-01-07T00:26:40.000Z,1013.9
2023-01-07T00:27:38.951Z,1013.9
2023-01-07T00:29:13.000Z,1013.8
2023-01-07T00:30:11.337Z,1013.8
2023-01-07T00:31:44.544Z,1013.9
2023-01-07T00:33:00.738Z,1013.9
2023-01-07T00:34:16.000Z,1013.9
2023-01-07T00:35:33.114Z,1014
2023-01-07T00:36:49.000Z,1013.9
2023-01-07T00:38:12.000Z,1013.9
2023-01-07T00:39:21.000Z,1013.9
2023-01-07T00:40:37.000Z,1013.9
2023-01-07T00:41:54.000Z,1013.8
2023-01-07T00:42:52.283Z,1013.9
2023-01-07T00:44:26.000Z,1013.8
2023-01-07T00:45:42.000Z,1013.8
2023-01-07T00:46:58.000Z,1013.8
2023-01-07T00:48:15.000Z,1013.9
2023-01-07T00:49:30.000Z,1013.9
2023-01-07T00:50:46.455Z,1013.9
2023-01-07T00:52:02.000Z,1013.9
2023-01-07T00:53:00.842Z,1013.9
2023-01-07T00:54:35.000Z,1013.9
2023-01-07T00:55:33.229Z,1013.9
2023-01-07T00:57:07.000Z,1013.9
2023-01-07T00:58:05.616Z,1013.8
2023-01-07T00:59:47.000Z,1013.9
2023-01-07T01:00:38.002Z,1013.8
2023-01-07T01:02:12.000Z,1014
2023-01-07T01:03:28.389Z,1014
2023-01-07T01:04:51.000Z,1014
2023-01-07T01:05:41.789Z,1013.9
2023-01-07T01:07:15.000Z,1014
2023-01-07T01:08:32.161Z,1013.9
2023-01-07T01:09:48.000Z,1014
2023-01-07T01:11:04.000Z,1013.9
2023-01-07T01:12:28.000Z,1013.9
2023-01-07T01:13:36.000Z,1013.9
2023-01-07T01:15:00.000Z,1013.9
2023-01-07T01:16:09.336Z,1013.9
2023-01-07T01:17:25.000Z,1014
2023-01-07T01:18:41.723Z,1013.9
2023-01-07T01:19:57.000Z,1014
2023-01-07T01:21:13.000Z,1014
2023-01-07T01:22:29.000Z,1014.1
2023-01-07T01:23:52.000Z,1014
2023-01-07T01:25:01.000Z,1014
2023-01-07T01:26:17.000Z,1013.9
2023-01-07T01:27:41.000Z,1014
2023-01-07T01:28:50.283Z,1014
2023-01-07T01:30:06.000Z,1014
2023-01-07T01:31:22.000Z,1014
2023-01-07T01:32:38.862Z,1014
2023-01-07T01:33:37.055Z,1014
2023-01-07T01:35:11.248Z,1014
2023-01-07T01:36:27.000Z,1014.1
2023-01-07T01:37:43.636Z,1014
2023-01-07T01:38:59.000Z,1014
2023-01-07T01:40:15.000Z,1014
2023-01-07T01:41:31.229Z,1014
2023-01-07T01:42:47.000Z,1013.9
2023-01-07T01:43:45.615Z,1013.9
2023-01-07T01:45:19.000Z,1013.9
2023-01-07T01:46:36.000Z,1013.9
2023-01-07T01:47:52.195Z,1013.8
2023-01-07T01:48:50.388Z,1013.8
2023-01-07T01:50:24.000Z,1013.8
2023-01-07T01:51:40.000Z,1013.8
2023-01-07T01:52:56.000Z,1013.8
2023-01-07T01:54:13.161Z,1013.8
2023-01-07T01:55:29.354Z,1013.8
2023-01-07T01:56:45.000Z,1013.8
2023-01-07T01:58:00.000Z,1013.9
2023-01-07T01:59:16.000Z,1013.8
2023-01-07T02:00:33.141Z,1013.7
2023-01-07T02:01:31.334Z,1013.8
2023-01-07T02:03:05.000Z,1013.8
2023-01-07T02:04:03.720Z,1013.8
2023-01-07T02:05:45.000Z,1013.8
2023-01-07T02:06:54.107Z,1013.7
2023-01-07T02:08:10.000Z,1013.7
2023-01-07T02:09:26.493Z,1013.8
2023-01-07T02:10:42.000Z,1013.7
2023-01-07T02:11:58.000Z,1013.7
2023-01-07T02:13:15.074Z,1013.6
2023-01-07T02:14:38.000Z,1013.7
2023-01-07T02:15:47.460Z,1013.8
2023-01-07T02:17:03.000Z,1013.7
2023-01-07T02:18:18.860Z,1013.7
2023-01-07T02:19:35.053Z,1013.7
2023-01-07T02:20:51.000Z,1013.7
2023-01-07T02:22:07.440Z,1013.7
2023-01-07T02:23:23.000Z,1013.7
2023-01-07T02:24:39.826Z,1013.6
2023-01-07T02:25:56.000Z,1013.7
2023-01-07T02:27:12.000Z,1013.7
2023-01-07T02:28:28.000Z,1013.6
2023-01-07T02:29:26.598Z,1013.7
2023-01-07T02:31:00.000Z,1013.6
2023-01-07T02:32:16.985Z,1013.6
2023-01-07T02:33:32.000Z,1013.5
2023-01-07T02:34:48.000Z,1013.6
2023-01-07T02:36:04.000Z,1013.5
2023-01-07T02:37:02.771Z,1013.4
2023-01-07T02:38:18.963Z,1013.4
2023-01-07T02:39:35.157Z,1013.3
2023-01-07T02:41:09.000Z,1013.4
2023-01-07T02:42:07.543Z,1013.4
2023-01-07T02:43:41.000Z,1013.5
2023-01-07T02:44:57.931Z,1013.4
2023-01-07T02:46:14.000Z,1013.3
2023-01-07T02:47:30.000Z,1013.5
2023-01-07T02:48:45.000Z,1013.5
2023-01-07T02:50:01.710Z,1013.5
2023-01-07T02:51:17.920Z,1013.5
2023-01-07T02:52:34.000Z,1013.5
2023-01-07T02:53:50.000Z,1013.5
2023-01-07T02:54:48.500Z,1013.5
2023-01-07T02:56:22.693Z,1013.5
2023-01-07T02:57:38.886Z,1013.5
2023-01-07T02:58:55.079Z,1013.5
2023-01-07T03:00:11.273Z,1013.5
2023-01-07T03:01:27.000Z,1013.5
2023-01-07T03:02:43.000Z,1013.5
2023-01-07T03:03:59.000Z,1013.4
2023-01-07T03:05:16.000Z,1013.5
2023-01-07T03:06:32.238Z,1013.4
2023-01-07T03:07:48.000Z,1013.3
2023-01-07T03:09:04.624Z,1013.4
2023-01-07T03:10:20.818Z,1013.4
2023-01-07T03:11:37.000Z,1013.4
2023-01-07T03:12:52.000Z,1013.4
2023-01-07T03:14:08.411Z,1013.4
2023-01-07T03:15:06.604Z,1013.5
2023-01-07T03:16:40.000Z,1013.4
2023-01-07T03:17:38.992Z,1013.4
2023-01-07T03:19:13.000Z,1013.4
2023-01-07T03:20:11.378Z,1013.4
2023-01-07T03:21:45.571Z,1013.4
2023-01-07T03:23:01.764Z,1013.4
2023-01-07T03:24:25.000Z,1013.4
2023-01-07T03:25:34.000Z,1013.4
2023-01-07T03:26:50.000Z,1013.4
2023-01-07T03:28:06.000Z,1013.4
2023-01-07T03:29:21.000Z,1013.4
2023-01-07T03:30:37.937Z,1013.5
2023-01-07T03:31:54.130Z,1013.5
2023-01-07T03:33:10.000Z,1013.5
2023-01-07T03:34:26.000Z,1013.4
2023-01-07T03:35:42.710Z,1013.5
2023-01-07T03:36:58.903Z,1013.5
2023-01-07T03:38:15.093Z,1013.4
2023-01-07T03:39:30.000Z,1013.4
2023-01-07T03:40:29.483Z,1013.4
2023-01-07T03:42:03.000Z,1013.5
2023-01-07T03:43:01.869Z,1013.5
2023-01-07T03:44:36.057Z,1013.5
2023-01-07T03:45:33.268Z,1013.5
2023-01-07T03:47:07.000Z,1013.4
2023-01-07T03:48:23.656Z,1013.4
2023-01-07T03:49:39.000Z,1013.3
2023-01-07T03:50:56.000Z,1013.4
2023-01-07T03:52:12.000Z,1013.3
2023-01-07T03:53:10.429Z,1013.3
2023-01-07T03:54:52.000Z,1013.3
2023-01-07T03:55:42.816Z,1013.3
2023-01-07T03:57:17.000Z,1013.4
2023-01-07T03:58:15.202Z,1013.2
2023-01-07T03:59:56.000Z,1013.1
2023-01-07T04:01:05.590Z,1013.2
2023-01-07T04:02:21.783Z,1013
2023-01-07T04:03:36.000Z,1013
2023-01-07T04:04:53.000Z,1013.1
2023-01-07T04:06:16.000Z,1013.1
2023-01-07T04:07:25.569Z,1013
2023-01-07T04:08:41.000Z,1013
2023-01-07T04:10:05.000Z,1013
2023-01-07T04:11:14.000Z,1013
2023-01-07T04:12:30.000Z,1013
2023-01-07T04:13:46.000Z,1013
2023-01-07T04:15:10.000Z,1013
2023-01-07T04:16:18.000Z,1013
2023-01-07T04:17:42.000Z,1013
2023-01-07T04:18:58.000Z,1013
2023-01-07T04:20:06.000Z,1012.9
2023-01-07T04:21:22.000Z,1012.9
2023-01-07T04:22:38.000Z,1012.9
2023-01-07T04:23:55.000Z,1013
2023-01-07T04:25:11.288Z,1012.9
2023-01-07T04:26:27.481Z,1012.9
2023-01-07T04:27:43.000Z,1012.9
2023-01-07T04:28:59.000Z,1012.9
2023-01-07T04:30:16.060Z,1012.9
2023-01-07T04:31:31.000Z,1012.9
2023-01-07T04:32:48.448Z,1012.8
2023-01-07T04:34:04.000Z,1012.8
2023-01-07T04:35:20.000Z,1012.8
2023-01-07T04:36:36.000Z,1012.7
2023-01-07T04:37:52.000Z,1012.8
2023-01-07T04:39:09.414Z,1012.8
2023-01-07T04:40:25.000Z,1012.9
2023-01-07T04:41:40.000Z,1012.9
2023-01-07T04:42:57.000Z,1012.9
2023-01-07T04:43:55.200Z,1012.9
2023-01-07T04:45:36.000Z,1012.8
2023-01-07T04:46:45.586Z,1012.9
2023-01-07T04:48:01.000Z,1012.9
2023-01-07T04:48:59.972Z,1012.9
2023-01-07T04:50:34.000Z,1012.8
2023-01-07T04:51:50.359Z,1012.8
2023-01-07T04:53:06.552Z,1012.8
2023-01-07T04:54:22.000Z,1012.8
2023-01-07T04:55:38.000Z,1012.8
2023-01-07T04:56:54.000Z,1012.8
2023-01-07T04:58:10.000Z,1012.8
2023-01-07T04:59:26.000Z,1012.8
2023-01-07T05:00:42.724Z,1012.8
2023-01-07T05:01:40.917Z,1012.8
2023-01-07T05:03:15.000Z,1012.8
2023-01-07T05:04:31.304Z,1012.8
2023-01-07T05:05:47.000Z,1012.8
2023-01-07T05:07:03.000Z,1012.8
2023-01-07T05:08:19.000Z,1012.8
2023-01-07T05:09:36.077Z,1012.9
2023-01-07T05:10:51.000Z,1012.9
2023-01-07T05:12:08.000Z,1012.9
2023-01-07T05:13:24.000Z,1012.9
2023-01-07T05:14:22.850Z,1012.8
2023-01-07T05:15:55.000Z,1012.8
2023-01-07T05:17:12.251Z,1012.8
2023-01-07T05:18:28.444Z,1012.8
2023-01-07T05:19:44.000Z,1012.8
2023-01-07T05:21:00.000Z,1012.8
2023-01-07T05:22:17.024Z,1012.8
2023-01-07T05:23:33.217Z,1012.8
2023-01-07T05:24:49.000Z,1012.8
2023-01-07T05:26:05.000Z,1012.8
2023-01-07T05:27:21.000Z,1012.8
2023-01-07T05:28:37.000Z,1012.8
2023-01-07T05:29:54.000Z,1012.8
2023-01-07T05:31:17.000Z,1012.8
2023-01-07T05:32:25.000Z,1012.8
2023-01-07T05:33:41.000Z,1012.8
2023-01-07T05:34:57.970Z,1012.6
2023-01-07T05:36:14.163Z,1012.7
2023-01-07T05:37:30.000Z,1012.7
2023-01-07T05:38:46.551Z,1012.7
2023-01-07T05:40:02.743Z,1012.7
2023-01-07T05:41:18.000Z,1012.6
2023-01-07T05:42:35.130Z,1012.7
2023-01-07T05:43:51.323Z,1012.7
2023-01-07T05:45:07.000Z,1012.7
2023-01-07T05:46:23.710Z,1012.7
2023-01-07T05:47:39.000Z,1012.7
2023-01-07T05:48:56.100Z,1012.7
2023-01-07T05:50:12.000Z,1012.7
2023-01-07T05:51:28.484Z,1012.6
2023-01-07T05:52:44.000Z,1012.6
2023-01-07T05:53:59.885Z,1012.6
2023-01-07T05:55:16.077Z,1012.7
2023-01-07T05:56:32.270Z,1012.7
2023-01-07T05:57:48.000Z,1012.7
2023-01-07T05:59:04.657Z,1012.7
2023-01-07T06:00:20.858Z,1012.7
2023-01-07T06:01:37.044Z,1012.7
2023-01-07T06:02:53.000Z,1012.7
2023-01-07T06:04:09.430Z,1012.7
2023-01-07T06:05:25.000Z,1012.7
2023-01-07T06:06:41.817Z,1012.6
2023-01-07T06:07:58.010Z,1012.6
2023-01-07T06:09:14.202Z,1012.6
2023-01-07T06:10:30.518Z,1012.7
2023-01-07T06:11:54.000Z,1012.7
2023-01-07T06:13:02.904Z,1012.7
2023-01-07T06:14:19.099Z,1012.7
2023-01-07T06:15:35.000Z,1012.7
2023-01-07T06:16:51.486Z,1012.6
2023-01-07T06:18:07.687Z,1012.7
2023-01-07T06:19:23.872Z,1012.7
2023-01-07T06:20:40.066Z,1012.7
2023-01-07T06:21:56.260Z,1012.7
2023-01-07T06:23:12.453Z,1012.8
2023-01-07T06:24:28.646Z,1012.7
2023-01-07T06:25:44.832Z,1012.8
2023-01-07T06:27:00.054Z,1012.8
2023-01-07T06:28:16.000Z,1012.7
2023-01-07T06:29:32.432Z,1012.8
2023-01-07T06:30:48.000Z,1012.7
2023-01-07T06:32:04.819Z,1012.8
2023-01-07T06:33:21.013Z,1012.7
2023-01-07T06:34:37.206Z,1012.7
2023-01-07T06:35:53.000Z,1012.8
2023-01-07T06:37:09.592Z,1012.7
2023-01-07T06:38:25.000Z,1012.7
2023-01-07T06:39:41.979Z,1012.7
2023-01-07T06:40:58.000Z,1012.7
2023-01-07T06:42:21.000Z,1012.7
2023-01-07T06:43:29.000Z,1012.8
2023-01-07T06:44:45.767Z,1012.8
2023-01-07T06:46:01.961Z,1012.8
2023-01-07T06:47:17.000Z,1012.7
2023-01-07T06:48:34.348Z,1012.8
2023-01-07T06:49:50.541Z,1012.7
2023-01-07T06:51:06.734Z,1012.7
2023-01-07T06:52:22.927Z,1012.7
2023-01-07T06:53:39.000Z,1012.6
2023-01-07T06:54:55.315Z,1012.7
2023-01-07T06:56:11.509Z,1012.7
2023-01-07T06:57:27.702Z,1012.7
2023-01-07T06:58:43.895Z,1012.7
2023-01-07T07:00:00.088Z,1012.7
2023-01-07T07:01:15.000Z,1012.7
2023-01-07T07:02:31.489Z,1012.8
2023-01-07T07:03:47.682Z,1012.7
2023-01-07T07:05:02.899Z,1012.7
2023-01-07T07:06:19.093Z,1012.8
2023-01-07T07:07:35.287Z,1012.7
2023-01-07T07:08:51.480Z,1012.8
2023-01-07T07:10:07.673Z,1012.8
2023-01-07T07:11:23.867Z,1012.8
2023-01-07T07:12:39.000Z,1012.8
2023-01-07T07:13:55.000Z,1012.8
2023-01-07T07:15:12.447Z,1012.9
2023-01-07T07:16:28.640Z,1012.9
2023-01-07T07:17:44.829Z,1012.9
2023-01-07T07:19:01.028Z,1012.8
2023-01-07T07:20:16.000Z,1012.8
2023-01-07T07:21:32.427Z,1012.8
2023-01-07T07:22:48.621Z,1012.8
2023-01-07T07:24:04.814Z,1012.8
2023-01-07T07:25:21.008Z,1012.8
2023-01-07T07:26:37.201Z,1012.7
2023-01-07T07:27:53.394Z,1012.8
2023-01-07T07:29:09.000Z,1012.7
2023-01-07T07:30:25.781Z,1012.8
2023-01-07T07:31:41.974Z,1012.7
2023-01-07T07:32:58.168Z,1012.8
2023-01-07T07:33:56.361Z,1012.7
2023-01-07T07:35:37.000Z,1012.8
2023-01-07T07:36:46.748Z,1012.8
2023-01-07T07:38:02.941Z,1012.8
2023-01-07T07:39:19.134Z,1012.8
2023-01-07T07:40:34.337Z,1012.9
2023-01-07T07:41:50.534Z,1012.8
2023-01-07T07:43:06.000Z,1012.9
2023-01-07T07:44:22.920Z,1012.9
2023-01-07T07:45:39.114Z,1012.9
2023-01-07T07:46:55.307Z,1012.8
2023-01-07T07:48:11.511Z,1012.8
2023-01-07T07:49:27.694Z,1012.8
2023-01-07T07:50:43.000Z,1012.9
2023-01-07T07:51:59.000Z,1012.8
2023-01-07T07:53:16.275Z,1012.9
2023-01-07T07:54:32.000Z,1012.9
2023-01-07T07:55:48.661Z,1012.8
2023-01-07T07:57:04.855Z,1012.9
2023-01-07T07:58:20.068Z,1012.8
2023-01-07T07:59:36.255Z,1012.9
2023-01-07T08:00:52.448Z,1012.8
2023-01-07T08:03:24.834Z,1013
2023-01-07T08:04:40.000Z,1012.9
2023-01-07T08:05:56.000Z,1012.9
2023-01-07T08:07:13.415Z,1012.9
2023-01-07T08:08:29.608Z,1013
2023-01-07T08:09:45.000Z,1013
2023-01-07T08:11:01.994Z,1012.9
2023-01-07T08:12:18.185Z,1012.9
2023-01-07T08:13:34.386Z,1012.9
2023-01-07T08:14:49.588Z,1012.9
2023-01-07T08:16:05.781Z,1012.8
2023-01-07T08:17:21.000Z,1012.8
2023-01-07T08:18:38.168Z,1012.8
2023-01-07T08:20:01.000Z,1012.7
2023-01-07T08:21:10.554Z,1012.8
2023-01-07T08:22:26.000Z,1012.7
2023-01-07T08:23:42.942Z,1012.7
2023-01-07T08:24:59.000Z,1012.7
2023-01-07T08:26:14.000Z,1012.7
2023-01-07T08:27:31.522Z,1012.7
2023-01-07T08:28:47.000Z,1012.7
2023-01-07T08:30:03.000Z,1012.7
2023-01-07T08:31:19.116Z,1012.7
2023-01-07T08:32:35.308Z,1012.7
2023-01-07T08:33:51.000Z,1012.7
2023-01-07T08:35:07.000Z,1012.7
2023-01-07T08:36:23.888Z,1012.7
2023-01-07T08:37:22.082Z,1012.8
2023-01-07T08:38:56.275Z,1012.8
2023-01-07T08:41:28.000Z,1012.8
2023-01-07T08:42:44.855Z,1012.7
2023-01-07T08:44:00.000Z,1012.8
2023-01-07T08:45:17.242Z,1012.7
2023-01-07T08:46:33.435Z,1012.7
2023-01-07T08:47:49.000Z,1012.7
2023-01-07T08:49:04.835Z,1012.7
2023-01-07T08:50:21.000Z,1012.7
2023-01-07T08:51:44.000Z,1012.8
2023-01-07T08:52:53.415Z,1012.7
2023-01-07T08:54:09.608Z,1012.7
2023-01-07T08:55:25.801Z,1012.7
2023-01-07T08:56:41.995Z,1012.8
2023-01-07T08:57:57.000Z,1012.7
2023-01-07T08:59:13.000Z,1012.7
2023-01-07T09:00:30.000Z,1012.7
2023-01-07T09:01:46.768Z,1012.6
2023-01-07T09:03:02.000Z,1012.6
2023-01-07T09:04:18.000Z,1012.7
2023-01-07T09:06:50.000Z,1012.7
2023-01-07T09:08:06.000Z,1012.7
2023-01-07T09:09:22.939Z,1012.7
2023-01-07T09:10:39.133Z,1012.7
2023-01-07T09:12:02.000Z,1012.8
2023-01-07T09:13:11.519Z,1012.7
2023-01-07T09:14:27.000Z,1012.7
2023-01-07T09:15:25.905Z,1012.7
2023-01-07T09:17:00.098Z,1012.6
2023-01-07T09:18:16.291Z,1012.7
2023-01-07T09:19:32.000Z,1012.7
2023-01-07T09:20:48.677Z,1012.6
2023-01-07T09:22:11.000Z,1012.6
2023-01-07T09:23:20.076Z,1012.6
2023-01-07T09:24:36.000Z,1012.6
2023-01-07T09:25:52.000Z,1012.6
2023-01-07T09:27:08.655Z,1012.6
2023-01-07T09:28:24.841Z,1012.7
2023-01-07T09:29:41.041Z,1012.6
2023-01-07T09:32:13.427Z,1012.6
2023-01-07T09:33:29.000Z,1012.6
2023-01-07T09:34:45.815Z,1012.6
2023-01-07T09:36:01.000Z,1012.6
2023-01-07T09:37:18.000Z,1012.6
2023-01-07T09:38:33.000Z,1012.6
2023-01-07T09:39:49.605Z,1012.6
2023-01-07T09:40:47.800Z,1012.6
2023-01-07T09:42:21.000Z,1012.6
2023-01-07T09:43:38.189Z,1012.6
2023-01-07T09:44:54.000Z,1012.7
2023-01-07T09:46:10.578Z,1012.6
2023-01-07T09:47:26.773Z,1012.6
2023-01-07T09:48:42.000Z,1012.6
2023-01-07T09:49:59.162Z,1012.6
2023-01-07T09:51:15.000Z,1012.6
2023-01-07T09:52:38.000Z,1012.5
2023-01-07T09:53:29.745Z,1012.5
2023-01-07T09:55:02.000Z,1012.6
2023-01-07T09:56:19.148Z,1012.5
2023-01-07T09:57:34.000Z,1012.6
2023-01-07T09:58:51.000Z,1012.5
2023-01-07T10:00:15.000Z,1012.5
2023-01-07T10:01:23.000Z,1012.5
2023-01-07T10:03:56.317Z,1012.5
2023-01-07T10:05:19.000Z,1012.5
2023-01-07T10:06:10.707Z,1012.5
2023-01-07T10:07:44.902Z,1012.5
2023-01-07T10:10:17.292Z,1012.4
2023-01-07T10:11:33.000Z,1012.4
2023-01-07T10:12:48.695Z,1012.5
2023-01-07T10:14:04.000Z,1012.5
2023-01-07T10:15:21.085Z,1012.4
2023-01-07T10:16:37.000Z,1012.4
2023-01-07T10:17:53.475Z,1012.4
2023-01-07T10:19:09.000Z,1012.4
2023-01-07T10:20:33.000Z,1012.4
2023-01-07T10:21:42.060Z,1012.4
2023-01-07T10:22:57.000Z,1012.3
2023-01-07T10:24:14.000Z,1012.4
2023-01-07T10:25:30.000Z,1012.3
2023-01-07T10:26:46.000Z,1012.4
2023-01-07T10:28:03.000Z,1012.3
2023-01-07T10:29:18.000Z,1012.2
2023-01-07T10:30:34.438Z,1012.2
2023-01-07T10:31:32.633Z,1012.2
2023-01-07T10:33:06.000Z,1012.2
2023-01-07T10:35:39.000Z,1012.2
2023-01-07T10:36:55.413Z,1012.2
2023-01-07T10:38:11.000Z,1012.1
2023-01-07T10:39:27.803Z,1012.1
2023-01-07T10:40:44.000Z,1012.2
2023-01-07T10:42:00.193Z,1012.1
2023-01-07T10:43:16.000Z,1012
2023-01-07T10:44:32.583Z,1012.1
2023-01-07T10:45:47.000Z,1012.1
2023-01-07T10:48:20.000Z,1012
2023-01-07T10:49:36.000Z,1012.1
2023-01-07T10:50:52.000Z,1012
2023-01-07T10:52:08.000Z,1012
2023-01-07T10:53:24.000Z,1012
2023-01-07T10:54:23.156Z,1011.9
2023-01-07T10:55:57.000Z,1012
2023-01-07T10:57:13.000Z,1011.9
2023-01-07T10:58:29.000Z,1012
2023-01-07T10:59:45.936Z,1011.9
2023-01-07T11:01:02.131Z,1011.9
2023-01-07T11:02:17.328Z,1011.9
2023-01-07T11:03:33.000Z,1011.9
2023-01-07T11:04:31.728Z,1011.9
2023-01-07T11:06:05.000Z,1011.9
2023-01-07T11:07:22.000Z,1011.8
2023-01-07T11:08:38.313Z,1011.7
2023-01-07T11:09:54.000Z,1011.8
2023-01-07T11:11:10.703Z,1011.7
2023-01-07T11:12:26.000Z,1011.6
2023-01-07T11:13:43.000Z,1011.7
2023-01-07T11:14:59.287Z,1011.6
2023-01-07T11:16:15.483Z,1011.8
2023-01-07T11:17:31.678Z,1011.7
2023-01-07T11:18:46.000Z,1011.6
2023-01-07T11:19:45.081Z,1011.6
2023-01-07T11:21:19.000Z,1011.5
2023-01-07T11:22:16.493Z,1011.6
2023-01-07T11:23:50.000Z,1011.5
2023-01-07T11:25:06.883Z,1011.5
2023-01-07T11:26:23.000Z,1011.5
2023-01-07T11:27:39.273Z,1011.5
2023-01-07T11:28:55.468Z,1011.5
2023-01-07T11:30:11.663Z,1011.5
2023-01-07T11:31:09.858Z,1011.4
2023-01-07T11:32:26.053Z,1011.5
2023-01-07T11:34:00.000Z,1011.4
2023-01-07T11:34:58.443Z,1011.5
2023-01-07T11:36:32.000Z,1011.4
2023-01-07T11:37:48.000Z,1011.4
2023-01-07T11:38:47.028Z,1011.4
2023-01-07T11:40:19.000Z,1011.4
2023-01-07T11:41:36.431Z,1011.4
2023-01-07T11:42:34.626Z,1011.4
2023-01-07T11:44:16.000Z,1011.4
2023-01-07T11:45:25.000Z,1011.4
2023-01-07T11:46:40.000Z,1011.5
2023-01-07T11:47:39.405Z,1011.4
2023-01-07T11:49:13.000Z,1011.3
2023-01-07T11:51:46.000Z,1011.4
2023-01-07T11:52:44.185Z,1011.4
2023-01-07T11:54:18.000Z,1011.4
2023-01-07T11:55:34.575Z,1011.3
2023-01-07T11:56:49.783Z,1011.3
2023-01-07T11:57:47.978Z,1011.4
2023-01-07T11:59:22.000Z,1011.4
2023-01-07T12:00:38.000Z,1011.3
2023-01-07T12:02:02.000Z,1011.4
2023-01-07T12:03:10.000Z,1011.2
2023-01-07T12:04:26.954Z,1011.3
2023-01-07T12:05:43.000Z,1011.2
2023-01-07T12:06:59.338Z,1011.2
2023-01-07T12:07:57.538Z,1011.2
2023-01-07T12:09:31.733Z,1011.2
2023-01-07T12:10:47.000Z,1011.2
2023-01-07T12:12:04.000Z,1011.2
2023-01-07T12:13:02.318Z,1011.2
2023-01-07T12:14:35.000Z,1011.2
2023-01-07T12:15:51.000Z,1011.1
2023-01-07T12:17:15.000Z,1011.1
2023-01-07T12:18:06.111Z,1011.1
2023-01-07T12:19:40.000Z,1011.1
2023-01-07T12:20:56.000Z,1011.1
2023-01-07T12:22:12.000Z,1011.2
2023-01-07T12:23:10.892Z,1011.1
2023-01-07T12:24:45.087Z,1011.1
2023-01-07T12:25:43.282Z,1011.1
2023-01-07T12:27:17.477Z,1011.1
2023-01-07T12:28:33.672Z,1011.1
2023-01-07T12:29:49.000Z,1010.9
2023-01-07T12:31:05.000Z,1011
2023-01-07T12:32:21.000Z,1011
2023-01-07T12:33:37.000Z,1011
2023-01-07T12:34:53.000Z,1010.9
2023-01-07T12:36:09.000Z,1011
2023-01-07T12:37:26.040Z,1010.9
2023-01-07T12:38:24.245Z,1011
2023-01-07T12:39:58.441Z,1010.8
2023-01-07T12:42:30.831Z,1010.9
2023-01-07T12:43:47.015Z,1010.9
2023-01-07T12:45:10.000Z,1010.9
2023-01-07T12:46:01.416Z,1010.8
2023-01-07T12:47:43.000Z,1010.8
2023-01-07T12:48:33.806Z,1010.9
2023-01-07T12:50:08.000Z,1010.8
2023-01-07T12:51:06.196Z,1010.8
2023-01-07T12:52:39.407Z,1010.8
2023-01-07T12:55:11.796Z,1010.8
2023-01-07T12:56:28.000Z,1010.8
2023-01-07T12:57:44.000Z,1010.8
2023-01-07T12:59:00.000Z,1010.8
2023-01-07T13:00:16.576Z,1010.8
2023-01-07T13:01:32.000Z,1010.7
2023-01-07T13:02:30.967Z,1010.7
2023-01-07T13:03:47.161Z,1010.7
2023-01-07T13:05:21.000Z,1010.6
2023-01-07T13:07:53.747Z,1010.6
2023-01-07T13:08:51.941Z,1010.7
2023-01-07T13:10:07.150Z,1010.6
2023-01-07T13:11:23.345Z,1010.6
2023-01-07T13:12:57.000Z,1010.6
2023-01-07T13:14:13.000Z,1010.6
2023-01-07T13:15:29.930Z,1010.6
2023-01-07T13:16:46.000Z,1010.5
2023-01-07T13:18:02.000Z,1010.6
2023-01-07T13:20:34.000Z,1010.5
2023-01-07T13:21:32.905Z,1010.5
2023-01-07T13:23:07.000Z,1010.5
2023-01-07T13:24:23.295Z,1010.5
2023-01-07T13:25:39.000Z,1010.5
2023-01-07T13:26:54.000Z,1010.4
2023-01-07T13:28:10.894Z,1010.5
2023-01-07T13:29:26.000Z,1010.4
2023-01-07T13:30:43.000Z,1010.4
2023-01-07T13:31:59.000Z,1010.4
2023-01-07T13:33:23.000Z,1010.4
2023-01-07T13:34:31.000Z,1010.3
2023-01-07T13:35:48.000Z,1010.3
2023-01-07T13:36:46.259Z,1010.3
2023-01-07T13:38:20.000Z,1010.3
2023-01-07T13:39:18.649Z,1010.3
2023-01-07T13:41:00.000Z,1010.3
2023-01-07T13:42:08.000Z,1010.4
2023-01-07T13:43:24.000Z,1010.3
2023-01-07T13:44:40.443Z,1010.3
2023-01-07T13:45:56.000Z,1010.3
2023-01-07T13:47:12.000Z,1010.3
2023-01-07T13:48:29.000Z,1010.2
2023-01-07T13:49:27.223Z,1010.3
2023-01-07T13:51:01.000Z,1010.2
2023-01-07T13:51:59.613Z,1010.2
2023-01-07T13:53:33.808Z,1010.2
2023-01-07T13:54:32.003Z,1010.2
2023-01-07T13:56:06.198Z,1010.1
2023-01-07T13:57:22.393Z,1010.1
2023-01-07T13:58:38.588Z,1010.2
2023-01-07T13:59:36.783Z,1010.2
2023-01-07T14:01:09.000Z,1010.1
2023-01-07T14:02:26.196Z,1010.1
2023-01-07T14:03:24.382Z,1010.1
2023-01-07T14:04:40.577Z,1010.1
2023-01-07T14:06:14.000Z,1010
2023-01-07T14:07:12.968Z,1010.1
2023-01-07T14:08:46.000Z,1010
2023-01-07T14:10:03.000Z,1010
2023-01-07T14:11:19.555Z,1010
2023-01-07T14:12:35.000Z,1010
2023-01-07T14:13:51.000Z,1009.9
2023-01-07T14:15:08.145Z,1009.9
2023-01-07T14:16:24.000Z,1010
2023-01-07T14:17:21.544Z,1010
2023-01-07T14:18:55.000Z,1010
2023-01-07T14:19:53.934Z,1010
2023-01-07T14:21:28.000Z,1010
2023-01-07T14:24:00.000Z,1010
2023-01-07T14:24:58.714Z,1010
2023-01-07T14:26:14.910Z,1009.9
2023-01-07T14:27:49.116Z,1009.9
2023-01-07T14:29:05.300Z,1009.9
2023-01-07T14:30:03.495Z,1009.9
2023-01-07T14:31:37.000Z,1009.9
2023-01-07T14:32:35.884Z,1009.9
2023-01-07T14:34:09.000Z,1009.9
2023-01-07T14:35:25.288Z,1009.8
2023-01-07T14:36:41.484Z,1009.9
2023-01-07T14:37:57.000Z,1009.8
2023-01-07T14:39:21.000Z,1009.8
2023-01-07T14:40:12.068Z,1009.8
2023-01-07T14:41:46.000Z,1009.8
2023-01-07T14:42:44.459Z,1009.7
2023-01-07T14:44:18.000Z,1009.7
2023-01-07T14:45:16.849Z,1009.8
2023-01-07T14:46:51.000Z,1009.8
2023-01-07T14:48:07.238Z,1009.8
2023-01-07T14:49:23.000Z,1009.8
2023-01-07T14:50:38.000Z,1009.8
2023-01-07T14:51:54.000Z,1009.8
2023-01-07T14:52:53.032Z,1009.8
2023-01-07T14:54:34.000Z,1009.8
2023-01-07T14:55:43.000Z,1009.7
2023-01-07T14:56:59.617Z,1009.7
2023-01-07T14:57:57.812Z,1009.7
2023-01-07T14:59:32.000Z,1009.7
2023-01-07T15:00:48.204Z,1009.7
2023-01-07T15:02:04.000Z,1009.9
2023-01-07T15:03:20.602Z,1009.8
2023-01-07T15:04:36.000Z,1009.7
2023-01-07T15:05:34.985Z,1009.8
2023-01-07T15:07:08.000Z,1009.8
2023-01-07T15:08:06.389Z,1009.8
2023-01-07T15:09:40.585Z,1009.8
2023-01-07T15:10:38.779Z,1009.9
2023-01-07T15:12:12.000Z,1009.8
2023-01-07T15:14:45.000Z,1009.9
2023-01-07T15:15:43.560Z,1009.8
2023-01-07T15:17:17.000Z,1009.9
2023-01-07T15:18:33.964Z,1009.9
2023-01-07T15:19:57.000Z,1009.8
2023-01-07T15:21:13.000Z,1009.8
2023-01-07T15:22:22.000Z,1009.8
2023-01-07T15:23:20.730Z,1009.8
2023-01-07T15:24:53.000Z,1009.7
2023-01-07T15:26:10.138Z,1009.8
2023-01-07T15:27:26.334Z,1009.8
2023-01-07T15:28:42.542Z,1009.8
2023-01-07T15:29:58.000Z,1009.7
2023-01-07T15:30:56.918Z,1009.6
2023-01-07T15:32:31.000Z,1009.7
2023-01-07T15:33:47.000Z,1009.7
2023-01-07T15:35:03.506Z,1009.8
2023-01-07T15:36:01.700Z,1009.7
2023-01-07T15:37:34.920Z,1009.8
2023-01-07T15:38:51.114Z,1009.7
2023-01-07T15:40:07.311Z,1009.8
2023-01-07T15:41:23.520Z,1009.8
2023-01-07T15:42:39.000Z,1009.7
2023-01-07T15:44:03.000Z,1009.7
2023-01-07T15:45:12.000Z,1009.7
2023-01-07T15:46:35.000Z,1009.7
2023-01-07T15:47:44.482Z,1009.7
2023-01-07T15:49:00.000Z,1009.7
2023-01-07T15:50:16.000Z,1009.6
2023-01-07T15:51:33.068Z,1009.7
2023-01-07T15:52:49.000Z,1009.7
2023-01-07T15:54:05.000Z,1009.7
2023-01-07T15:55:20.000Z,1009.7
2023-01-07T15:56:36.870Z,1009.7
2023-01-07T15:57:53.059Z,1009.7
2023-01-07T15:58:51.253Z,1009.7
2023-01-07T16:00:25.450Z,1009.7
2023-01-07T16:01:23.644Z,1009.7
2023-01-07T16:02:57.000Z,1009.7
2023-01-07T16:04:14.034Z,1009.7
2023-01-07T16:05:12.230Z,1009.7
2023-01-07T16:06:46.000Z,1009.7
2023-01-07T16:08:02.619Z,1009.6
2023-01-07T16:09:18.827Z,1009.6
2023-01-07T16:10:35.010Z,1009.6
2023-01-07T16:11:50.000Z,1009.6
2023-01-07T16:13:06.415Z,1009.6
2023-01-07T16:14:04.609Z,1009.6